Time;durP1;ratioP1;P1;durP2;ratioP2;P2;SDS_P1;SDS_P2;PMS_P1;PMS_P2;Temp;Humidity;BMP_temperature;BMP_pressure;BME280_temperature;BME280_humidity;BME280_pressure;Samples;Min_cycle;Max_cycle;Signal;HPM_P1;HPM_P2
2022/10/31 05:38:35;;;;;;;113.20;52.15;;;;;;;;;;4972193;23;20110;-60
2022/10/31 05:41:01;;;;;;;93.65;51.50;;;;;;;;;;4915808;29;20032;-61
2022/10/31 05:43:27;;;;;;;118.82;48.42;;;;;;;;;;4915603;29;20043;-61
2022/10/31 05:45:54;;;;;;;106.20;50.05;;;;;;;;;;4915211;29;20024;-61
2022/10/31 05:48:20;;;;;;;92.60;49.50;;;;;;;;;;4915723;29;20024;-63
2022/10/31 05:50:47;;;;;;;105.97;48.47;;;;;;;;;;4902228;29;20044;-59
2022/10/31 05:53:13;;;;;;;104.25;51.30;;;;;;;;;;4896438;29;20036;-61
2022/10/31 05:55:43;;;;;;;99.03;49.72;;;;;;;;;;4896493;29;20489;-59
2022/10/31 05:58:09;;;;;;;95.88;50.08;;;;;;;;;;4896224;29;20127;-60
2022/10/31 06:00:35;;;;;;;94.03;50.05;;;;;;;;;;4896350;29;20476;-60
2022/10/31 06:03:05;;;;;;;89.88;49.33;;;;;;;;;;4896280;29;20028;-60
2022/10/31 06:05:31;;;;;;;86.22;48.65;;;;;;;;;;4896168;29;20481;-59
2022/10/31 06:07:58;;;;;;;97.65;47.38;;;;;;;;;;4896120;29;20489;-59
2022/10/31 06:10:24;;;;;;;106.28;46.75;;;;;;;;;;4895869;29;20051;-61
2022/10/31 06:12:50;;;;;;;84.63;46.72;;;;;;;;;;4897605;29;20044;-62
2022/10/31 06:15:17;;;;;;;103.22;47.42;;;;;;;;;;4904549;29;20064;-61
2022/10/31 06:17:43;;;;;;;86.05;45.38;;;;;;;;;;4908685;29;20040;-59
2022/10/31 06:20:09;;;;;;;91.53;46.17;;;;;;;;;;4914869;29;20115;-60
2022/10/31 06:22:35;;;;;;;100.88;45.78;;;;;;;;;;4914586;29;20108;-62
2022/10/31 06:25:01;;;;;;;90.50;47.97;;;;;;;;;;4911566;29;20048;-60
2022/10/31 06:27:27;;;;;;;75.38;45.50;;;;;;;;;;4902718;29;20104;-61
2022/10/31 06:29:53;;;;;;;111.00;46.67;;;;;;;;;;4903851;29;20036;-63
2022/10/31 06:32:19;;;;;;;110.88;45.40;;;;;;;;;;4904737;29;20111;-65
2022/10/31 06:34:49;;;;;;;91.05;47.67;;;;;;;;;;4902946;29;20020;-61
2022/10/31 06:37:15;;;;;;;101.20;48.10;;;;;;;;;;4901096;29;20052;-62
2022/10/31 06:39:41;;;;;;;128.45;50.83;;;;;;;;;;4894309;29;20056;-65
2022/10/31 06:42:07;;;;;;;100.38;50.08;;;;;;;;;;4894457;29;20034;-64
2022/10/31 06:44:33;;;;;;;87.95;46.50;;;;;;;;;;4894617;29;20033;-68
2022/10/31 06:46:59;;;;;;;86.55;47.28;;;;;;;;;;4894315;29;20028;-60
2022/10/31 06:49:25;;;;;;;91.75;48.50;;;;;;;;;;4894558;29;20099;-61
2022/10/31 06:51:51;;;;;;;84.32;47.70;;;;;;;;;;4894386;29;20124;-59
2022/10/31 06:54:17;;;;;;;85.50;46.92;;;;;;;;;;4894839;29;20140;-60
2022/10/31 06:56:46;;;;;;;89.85;49.40;;;;;;;;;;4894415;29;20536;-62
2022/10/31 06:59:12;;;;;;;95.75;49.67;;;;;;;;;;4894632;29;20028;-67
2022/10/31 07:01:38;;;;;;;106.88;50.10;;;;;;;;;;4898326;29;20076;-63
2022/10/31 07:04:04;;;;;;;96.22;49.63;;;;;;;;;;4898004;29;20037;-62
2022/10/31 07:06:30;;;;;;;105.18;50.83;;;;;;;;;;4897917;29;20442;-64
2022/10/31 07:08:56;;;;;;;106.70;51.25;;;;;;;;;;4897805;29;20131;-61
2022/10/31 07:11:23;;;;;;;102.68;51.63;;;;;;;;;;4897665;29;20123;-62
2022/10/31 07:13:49;;;;;;;117.07;52.03;;;;;;;;;;4898291;29;20016;-66
2022/10/31 07:16:15;;;;;;;110.13;51.63;;;;;;;;;;4897720;29;20032;-67
2022/10/31 07:18:41;;;;;;;97.95;51.88;;;;;;;;;;4897744;29;20024;-63
2022/10/31 07:21:07;;;;;;;101.82;52.08;;;;;;;;;;4897387;29;20031;-63
2022/10/31 07:23:33;;;;;;;103.22;52.60;;;;;;;;;;4897288;29;20362;-64
2022/10/31 07:25:59;;;;;;;111.45;53.95;;;;;;;;;;4897353;29;20161;-63
2022/10/31 07:28:26;;;;;;;105.43;53.50;;;;;;;;;;4896957;29;20021;-64
2022/10/31 07:30:52;;;;;;;111.03;54.20;;;;;;;;;;4896906;29;20128;-62
2022/10/31 07:33:19;;;;;;;113.03;56.05;;;;;;;;;;4897437;29;20033;-63
2022/10/31 07:35:45;;;;;;;104.40;54.45;;;;;;;;;;4897256;29;20032;-64
2022/10/31 07:38:12;;;;;;;102.32;55.30;;;;;;;;;;4896541;29;20366;-62
2022/10/31 07:40:39;;;;;;;110.50;57.83;;;;;;;;;;4897309;29;20737;-64
2022/10/31 07:43:05;;;;;;;104.70;55.15;;;;;;;;;;4897112;29;20048;-64
2022/10/31 07:45:31;;;;;;;105.50;56.25;;;;;;;;;;4897396;29;20029;-65
2022/10/31 07:47:57;;;;;;;110.25;56.83;;;;;;;;;;4897438;29;20025;-64
2022/10/31 07:50:27;;;;;;;113.22;58.17;;;;;;;;;;4897188;29;20044;-63
2022/10/31 07:53:06;;;;;;;109.45;55.70;;;;;;;;;;4897034;29;20065;-66
2022/10/31 07:55:33;;;;;;;111.78;58.40;;;;;;;;;;4895761;29;20037;-64
2022/10/31 07:58:03;;;;;;;109.00;59.53;;;;;;;;;;4897061;29;20488;-65
2022/10/31 08:00:29;;;;;;;111.25;61.22;;;;;;;;;;4895176;29;20132;-65
2022/10/31 08:02:59;;;;;;;118.15;61.97;;;;;;;;;;4894170;29;20033;-64
2022/10/31 08:05:25;;;;;;;113.78;62.00;;;;;;;;;;4884235;29;20055;-66
2022/10/31 08:07:51;;;;;;;112.70;61.65;;;;;;;;;;4896422;29;20113;-64
2022/10/31 08:10:17;;;;;;;119.13;62.83;;;;;;;;;;4896007;29;20037;-64
2022/10/31 08:12:43;;;;;;;116.95;62.92;;;;;;;;;;4896225;29;20037;-61
2022/10/31 08:15:09;;;;;;;123.38;68.00;;;;;;;;;;4896225;29;20197;-61
2022/10/31 08:17:36;;;;;;;118.78;64.90;;;;;;;;;;4896725;29;20033;-62
2022/10/31 08:20:03;;;;;;;112.22;64.43;;;;;;;;;;4896640;29;20020;-65
2022/10/31 08:22:29;;;;;;;116.72;64.05;;;;;;;;;;4895965;29;20473;-64
2022/10/31 08:24:55;;;;;;;111.28;63.88;;;;;;;;;;4896111;29;20028;-62
2022/10/31 08:27:21;;;;;;;112.03;64.43;;;;;;;;;;4896264;29;20021;-62
2022/10/31 08:29:47;;;;;;;108.22;64.60;;;;;;;;;;4896895;29;20032;-61
2022/10/31 08:32:13;;;;;;;117.10;64.38;;;;;;;;;;4897744;29;20032;-63
2022/10/31 08:34:39;;;;;;;116.75;65.53;;;;;;;;;;4897399;29;20024;-62
2022/10/31 08:37:05;;;;;;;109.55;63.63;;;;;;;;;;4897255;29;20459;-63
2022/10/31 08:39:31;;;;;;;119.25;66.15;;;;;;;;;;4897956;29;20564;-62
2022/10/31 08:41:57;;;;;;;120.95;66.88;;;;;;;;;;4897969;29;20485;-63
2022/10/31 08:44:23;;;;;;;119.70;67.40;;;;;;;;;;4897582;29;20032;-64
2022/10/31 08:46:49;;;;;;;125.25;68.45;;;;;;;;;;4897317;29;20827;-62
2022/10/31 08:49:15;;;;;;;115.25;67.20;;;;;;;;;;4897616;29;20131;-62
2022/10/31 08:51:41;;;;;;;117.28;68.35;;;;;;;;;;4897469;29;20127;-62
2022/10/31 08:54:07;;;;;;;125.80;66.80;;;;;;;;;;4896981;29;20037;-63
2022/10/31 08:56:33;;;;;;;114.03;65.00;;;;;;;;;;4896271;29;20037;-62
2022/10/31 08:58:59;;;;;;;113.45;67.85;;;;;;;;;;4896364;29;20389;-62
2022/10/31 09:01:25;;;;;;;115.38;65.72;;;;;;;;;;4896952;29;20493;-61
2022/10/31 09:03:51;;;;;;;113.78;66.40;;;;;;;;;;4897182;29;20061;-62
2022/10/31 09:06:17;;;;;;;114.88;67.30;;;;;;;;;;4896015;29;20100;-63
2022/10/31 09:08:43;;;;;;;117.40;66.75;;;;;;;;;;4896939;29;20036;-62
2022/10/31 09:11:09;;;;;;;115.53;67.13;;;;;;;;;;4892552;29;20102;-63
2022/10/31 09:13:35;;;;;;;121.22;69.57;;;;;;;;;;4878161;29;20032;-62
2022/10/31 09:16:01;;;;;;;120.03;70.20;;;;;;;;;;4878052;29;20037;-61
2022/10/31 09:18:27;;;;;;;133.25;73.15;;;;;;;;;;4878112;29;20064;-62
2022/10/31 09:20:54;;;;;;;124.40;71.15;;;;;;;;;;4877122;29;20070;-61
2022/10/31 09:23:21;;;;;;;123.47;70.78;;;;;;;;;;4877710;29;20032;-62
2022/10/31 09:25:48;;;;;;;123.65;72.25;;;;;;;;;;4878035;29;20084;-61
2022/10/31 09:28:15;;;;;;;127.85;75.80;;;;;;;;;;4877936;29;20021;-61
2022/10/31 09:30:41;;;;;;;133.25;75.30;;;;;;;;;;4877923;29;20037;-62
2022/10/31 09:33:10;;;;;;;138.32;75.93;;;;;;;;;;4860850;29;20124;-63
2022/10/31 09:35:36;;;;;;;133.20;76.97;;;;;;;;;;4877798;29;20052;-61
2022/10/31 09:38:03;;;;;;;138.00;76.68;;;;;;;;;;4877127;29;20042;-61
2022/10/31 09:40:36;;;;;;;130.90;74.10;;;;;;;;;;4877412;29;20051;-61
2022/10/31 09:43:02;;;;;;;134.98;74.22;;;;;;;;;;4877391;29;20033;-63
2022/10/31 09:45:59;;;;;;;145.73;78.53;;;;;;;;;;4877312;29;20401;-63
2022/10/31 09:48:31;;;;;;;140.27;75.68;;;;;;;;;;4783866;29;20043;-61
2022/10/31 09:51:00;;;;;;;152.30;77.20;;;;;;;;;;4783294;30;20473;-62
2022/10/31 09:53:44;;;;;;;155.73;78.68;;;;;;;;;;4783775;30;20062;-63
2022/10/31 09:56:13;;;;;;;152.55;80.10;;;;;;;;;;4783793;30;20046;-63
2022/10/31 09:58:46;;;;;;;159.60;79.32;;;;;;;;;;4782810;29;20059;-64
2022/10/31 10:01:39;;;;;;;167.00;82.63;;;;;;;;;;4783457;30;20035;-63
2022/10/31 10:04:13;;;;;;;181.52;83.85;;;;;;;;;;4780769;30;20075;-63
2022/10/31 10:06:42;;;;;;;183.50;85.18;;;;;;;;;;4783313;30;20460;-62
2022/10/31 10:09:10;;;;;;;179.45;83.80;;;;;;;;;;4783327;30;20061;-62
2022/10/31 10:11:42;;;;;;;170.07;83.95;;;;;;;;;;4782913;30;20112;-63
2022/10/31 10:14:17;;;;;;;184.77;85.43;;;;;;;;;;4782748;30;20027;-63
2022/10/31 10:16:52;;;;;;;187.85;85.82;;;;;;;;;;4787942;29;20125;-64
2022/10/31 10:19:18;;;;;;;179.55;83.32;;;;;;;;;;4799426;29;20047;-63
2022/10/31 10:21:52;;;;;;;188.88;84.60;;;;;;;;;;4800117;29;20029;-67
2022/10/31 10:24:18;;;;;;;192.85;85.63;;;;;;;;;;4826038;29;20481;-62
2022/10/31 10:26:51;;;;;;;197.57;87.25;;;;;;;;;;4893758;29;20393;-65
2022/10/31 10:29:32;;;;;;;193.82;86.93;;;;;;;;;;4891620;29;20516;-61
2022/10/31 10:32:01;;;;;;;194.40;86.97;;;;;;;;;;4892623;29;20040;-63
2022/10/31 10:34:30;;;;;;;198.35;89.40;;;;;;;;;;4883566;29;20444;-62
2022/10/31 10:36:56;;;;;;;193.30;87.88;;;;;;;;;;4897855;29;20044;-61
2022/10/31 10:39:52;;;;;;;192.93;87.60;;;;;;;;;;4883507;29;20048;-64
2022/10/31 10:48:19;;;;;;;188.45;83.10;;;;;;;;;;4843897;29;20141;-62
2022/10/31 10:50:48;;;;;;;186.02;85.35;;;;;;;;;;4843535;29;20054;-60
2022/10/31 10:53:31;;;;;;;175.55;81.85;;;;;;;;;;4842781;29;20038;-62
2022/10/31 10:56:02;;;;;;;183.20;83.30;;;;;;;;;;4843385;29;20034;-63
2022/10/31 10:58:29;;;;;;;183.00;84.55;;;;;;;;;;4843465;29;20045;-60
2022/10/31 11:00:55;;;;;;;190.63;87.93;;;;;;;;;;4843274;29;20044;-61
2022/10/31 11:03:21;;;;;;;169.50;79.43;;;;;;;;;;4843739;29;20077;-71
2022/10/31 11:05:50;;;;;;;146.32;73.47;;;;;;;;;;4843285;29;20264;-72
2022/10/31 11:08:25;;;;;;;136.75;68.00;;;;;;;;;;4843116;29;20046;-65
2022/10/31 11:11:03;;;;;;;138.90;68.38;;;;;;;;;;4842977;29;20038;-66
2022/10/31 11:13:30;;;;;;;138.38;69.95;;;;;;;;;;4843505;29;20108;-60
2022/10/31 11:16:02;;;;;;;133.07;68.30;;;;;;;;;;4843232;29;20029;-64
2022/10/31 11:18:30;;;;;;;136.02;67.07;;;;;;;;;;4844006;29;20055;-61
2022/10/31 11:20:58;;;;;;;137.75;67.10;;;;;;;;;;4893321;29;20024;-64
2022/10/31 11:23:24;;;;;;;134.35;67.93;;;;;;;;;;4901374;29;20569;-61
2022/10/31 11:25:55;;;;;;;141.15;68.95;;;;;;;;;;4900594;29;20370;-69
2022/10/31 11:28:22;;;;;;;134.40;66.63;;;;;;;;;;4898138;29;20374;-63
2022/10/31 11:30:49;;;;;;;134.38;67.97;;;;;;;;;;4883504;29;20463;-74
2022/10/31 11:33:19;;;;;;;132.88;68.03;;;;;;;;;;4900731;29;20037;-62
2022/10/31 11:35:45;;;;;;;139.82;70.32;;;;;;;;;;4900711;29;20120;-60
2022/10/31 11:38:17;;;;;;;138.20;68.80;;;;;;;;;;4899739;29;20040;-59
2022/10/31 11:40:51;;;;;;;129.20;67.22;;;;;;;;;;4901087;29;20449;-60
2022/10/31 11:43:18;;;;;;;129.90;67.43;;;;;;;;;;4901264;29;20035;-60
2022/10/31 11:45:44;;;;;;;130.20;67.00;;;;;;;;;;4896884;29;20032;-64
2022/10/31 11:48:20;;;;;;;130.75;69.03;;;;;;;;;;4897743;29;20060;-61
2022/10/31 11:50:51;;;;;;;126.70;65.60;;;;;;;;;;4879297;29;20104;-60
2022/10/31 11:53:28;;;;;;;124.22;65.80;;;;;;;;;;4862122;29;20508;-65
2022/10/31 11:56:12;;;;;;;122.88;64.60;;;;;;;;;;4886278;29;20037;-67
2022/10/31 11:58:38;;;;;;;131.02;67.55;;;;;;;;;;4895004;29;20031;-64
2022/10/31 12:01:05;;;;;;;127.53;66.05;;;;;;;;;;4896704;29;20036;-70
2022/10/31 12:03:57;;;;;;;126.00;66.75;;;;;;;;;;4896481;29;20025;-61
2022/10/31 12:06:26;;;;;;;125.55;64.47;;;;;;;;;;4867579;29;20052;-62
2022/10/31 12:08:52;;;;;;;128.98;66.28;;;;;;;;;;4896369;29;20035;-70
2022/10/31 12:11:30;;;;;;;120.15;64.93;;;;;;;;;;4896345;29;20380;-70
2022/10/31 12:13:56;;;;;;;125.90;65.93;;;;;;;;;;4896620;29;20107;-64
2022/10/31 12:16:22;;;;;;;124.85;65.85;;;;;;;;;;4896151;29;20037;-73
2022/10/31 12:18:54;;;;;;;122.05;65.47;;;;;;;;;;4896861;29;20388;-62
2022/10/31 12:21:25;;;;;;;127.15;67.57;;;;;;;;;;4897577;29;20064;-61
2022/10/31 12:24:00;;;;;;;130.70;68.53;;;;;;;;;;4897262;29;20551;-62
2022/10/31 12:26:26;;;;;;;130.48;69.20;;;;;;;;;;4897175;29;20035;-61
2022/10/31 12:28:52;;;;;;;127.68;65.30;;;;;;;;;;4897302;29;20036;-66
2022/10/31 12:31:24;;;;;;;125.22;68.25;;;;;;;;;;4897008;29;20045;-71
2022/10/31 12:34:07;;;;;;;131.75;68.40;;;;;;;;;;4897596;29;20032;-71
2022/10/31 12:36:34;;;;;;;126.68;65.75;;;;;;;;;;4897467;29;20055;-61
2022/10/31 12:39:10;;;;;;;136.00;70.30;;;;;;;;;;4897164;29;20124;-70
2022/10/31 12:41:47;;;;;;;139.77;69.03;;;;;;;;;;4897056;29;20033;-71
2022/10/31 12:44:13;;;;;;;133.63;69.93;;;;;;;;;;4897333;29;20032;-61
2022/10/31 12:46:39;;;;;;;137.13;69.40;;;;;;;;;;4897306;29;20039;-62
2022/10/31 12:49:12;;;;;;;133.38;68.80;;;;;;;;;;4897400;29;20540;-61
2022/10/31 12:51:44;;;;;;;128.68;64.10;;;;;;;;;;4897048;29;20119;-62
2022/10/31 12:54:13;;;;;;;125.30;65.60;;;;;;;;;;4896884;29;20039;-72
2022/10/31 12:56:58;;;;;;;127.57;65.85;;;;;;;;;;4896037;29;20477;-61
2022/10/31 12:59:24;;;;;;;130.55;66.03;;;;;;;;;;4896940;29;20036;-74
2022/10/31 13:01:54;;;;;;;125.68;67.20;;;;;;;;;;4897356;29;20111;-62
2022/10/31 13:04:34;;;;;;;131.82;69.50;;;;;;;;;;4896943;29;20040;-61
2022/10/31 13:07:03;;;;;;;127.78;68.10;;;;;;;;;;4896788;29;20056;-61
2022/10/31 13:09:33;;;;;;;128.82;68.97;;;;;;;;;;4896918;29;20404;-61
2022/10/31 13:12:01;;;;;;;123.10;66.20;;;;;;;;;;4896592;29;20040;-61
2022/10/31 13:14:31;;;;;;;126.50;67.90;;;;;;;;;;4897071;29;20032;-68
2022/10/31 13:17:00;;;;;;;133.07;71.05;;;;;;;;;;4896697;29;20032;-62
2022/10/31 13:19:28;;;;;;;125.97;68.57;;;;;;;;;;4896773;29;20028;-62
2022/10/31 13:22:12;;;;;;;130.15;69.55;;;;;;;;;;4896582;29;20450;-61
2022/10/31 13:24:41;;;;;;;135.98;72.30;;;;;;;;;;4896679;29;20107;-61
2022/10/31 13:27:15;;;;;;;132.15;72.13;;;;;;;;;;4896166;29;20027;-68
2022/10/31 13:29:55;;;;;;;130.68;69.13;;;;;;;;;;4896656;29;20036;-67
2022/10/31 13:32:21;;;;;;;129.95;68.72;;;;;;;;;;4896544;29;20721;-61
2022/10/31 13:34:50;;;;;;;132.18;69.47;;;;;;;;;;4896258;29;20024;-61
2022/10/31 13:37:35;;;;;;;123.10;66.75;;;;;;;;;;4896320;29;20037;-62
2022/10/31 13:40:10;;;;;;;126.78;68.18;;;;;;;;;;4896532;29;20088;-65
2022/10/31 13:42:57;;;;;;;119.95;65.82;;;;;;;;;;4896484;29;20068;-68
2022/10/31 13:45:24;;;;;;;129.55;66.65;;;;;;;;;;4896076;29;20373;-61
2022/10/31 13:48:09;;;;;;;126.30;68.70;;;;;;;;;;4896243;29;20044;-63
2022/10/31 13:50:35;;;;;;;124.85;66.93;;;;;;;;;;4896330;29;20068;-62
2022/10/31 13:53:11;;;;;;;119.95;65.82;;;;;;;;;;4895965;29;20033;-62
2022/10/31 13:55:49;;;;;;;125.32;67.22;;;;;;;;;;4896197;29;20028;-61
2022/10/31 13:58:33;;;;;;;127.40;67.53;;;;;;;;;;4895930;29;20115;-61
2022/10/31 14:01:05;;;;;;;123.28;66.55;;;;;;;;;;4895875;29;20036;-62
2022/10/31 14:03:33;;;;;;;121.30;67.40;;;;;;;;;;4895918;29;20064;-61
2022/10/31 14:05:59;;;;;;;124.80;67.63;;;;;;;;;;4895308;29;20029;-61
2022/10/31 14:08:25;;;;;;;126.55;68.35;;;;;;;;;;4895638;29;20042;-61
2022/10/31 14:10:53;;;;;;;125.28;68.10;;;;;;;;;;4895548;29;20068;-61
2022/10/31 14:13:19;;;;;;;128.38;66.90;;;;;;;;;;4895425;29;20029;-60
2022/10/31 14:16:08;;;;;;;134.50;71.00;;;;;;;;;;4895446;29;20067;-61
2022/10/31 14:18:36;;;;;;;125.15;68.60;;;;;;;;;;4888197;29;20054;-71
2022/10/31 14:21:02;;;;;;;125.32;66.32;;;;;;;;;;4895009;29;20070;-61
2022/10/31 14:23:28;;;;;;;124.85;67.57;;;;;;;;;;4895496;29;20028;-60
2022/10/31 14:25:54;;;;;;;133.30;70.10;;;;;;;;;;4895293;29;20056;-61
2022/10/31 14:28:21;;;;;;;127.15;69.50;;;;;;;;;;4895533;29;20031;-60
2022/10/31 14:30:54;;;;;;;121.20;66.38;;;;;;;;;;4895311;29;20044;-60
2022/10/31 14:33:22;;;;;;;121.63;66.72;;;;;;;;;;4895332;29;20040;-61
2022/10/31 14:36:09;;;;;;;122.15;66.65;;;;;;;;;;4895372;29;20095;-68
2022/10/31 14:38:43;;;;;;;121.80;67.22;;;;;;;;;;4895012;29;20041;-61
2022/10/31 14:41:09;;;;;;;121.82;66.22;;;;;;;;;;4895417;29;20376;-60
2022/10/31 14:43:38;;;;;;;127.97;68.53;;;;;;;;;;4894776;29;20115;-61
2022/10/31 14:46:04;;;;;;;127.93;68.22;;;;;;;;;;4895661;29;20429;-70
2022/10/31 14:48:40;;;;;;;139.68;73.43;;;;;;;;;;4895390;29;20071;-62
2022/10/31 14:51:18;;;;;;;132.38;72.38;;;;;;;;;;4895155;29;20076;-61
2022/10/31 14:53:53;;;;;;;139.63;74.65;;;;;;;;;;4895865;29;20067;-69
2022/10/31 14:56:25;;;;;;;140.57;73.40;;;;;;;;;;4894590;29;20032;-61
2022/10/31 14:58:51;;;;;;;137.48;71.55;;;;;;;;;;4893941;29;20029;-61
2022/10/31 15:01:36;;;;;;;139.38;74.43;;;;;;;;;;4895427;29;20429;-62
2022/10/31 15:04:28;;;;;;;139.85;74.13;;;;;;;;;;4895282;29;20366;-61
2022/10/31 15:07:00;;;;;;;151.63;76.97;;;;;;;;;;4892491;29;20445;-61
2022/10/31 15:09:31;;;;;;;148.18;75.60;;;;;;;;;;4895522;29;20449;-60
2022/10/31 15:11:59;;;;;;;158.15;79.72;;;;;;;;;;4895735;29;20044;-60
2022/10/31 15:14:27;;;;;;;165.65;82.00;;;;;;;;;;4895651;29;20029;-61
2022/10/31 15:16:53;;;;;;;160.30;82.35;;;;;;;;;;4895537;29;20033;-62
2022/10/31 15:19:25;;;;;;;168.20;84.88;;;;;;;;;;4896166;29;20512;-62
2022/10/31 15:21:53;;;;;;;166.75;81.68;;;;;;;;;;4899367;29;20033;-61
2022/10/31 15:24:19;;;;;;;155.68;78.45;;;;;;;;;;4880988;29;20028;-61
2022/10/31 15:26:50;;;;;;;160.27;81.53;;;;;;;;;;4898659;29;20040;-64
2022/10/31 15:29:23;;;;;;;160.25;83.00;;;;;;;;;;4898384;29;20063;-61
2022/10/31 15:31:52;;;;;;;156.65;80.43;;;;;;;;;;4898549;29;20116;-64
2022/10/31 15:34:23;;;;;;;159.52;78.95;;;;;;;;;;4898748;29;20036;-60
2022/10/31 15:36:52;;;;;;;158.52;78.28;;;;;;;;;;4898522;29;20056;-64
2022/10/31 15:39:18;;;;;;;157.93;79.45;;;;;;;;;;4898620;29;20052;-63
2022/10/31 15:41:50;;;;;;;146.93;74.85;;;;;;;;;;4898095;29;20044;-63
2022/10/31 15:44:19;;;;;;;153.65;77.05;;;;;;;;;;4898331;29;20033;-62
2022/10/31 15:46:52;;;;;;;153.13;77.28;;;;;;;;;;4898590;29;20029;-62
2022/10/31 15:49:39;;;;;;;147.23;74.47;;;;;;;;;;4898429;29;20146;-65
2022/10/31 15:52:25;;;;;;;156.82;75.75;;;;;;;;;;4898115;29;20076;-61
2022/10/31 15:54:54;;;;;;;151.02;76.07;;;;;;;;;;4898013;29;20048;-62
2022/10/31 15:57:20;;;;;;;158.80;78.85;;;;;;;;;;4898676;29;20092;-65
2022/10/31 15:59:47;;;;;;;162.15;80.53;;;;;;;;;;4898463;29;20035;-61
2022/10/31 16:02:14;;;;;;;158.43;78.70;;;;;;;;;;4898223;29;20033;-61
2022/10/31 16:04:51;;;;;;;158.73;79.63;;;;;;;;;;4898178;29;20417;-63
2022/10/31 16:07:18;;;;;;;160.75;78.85;;;;;;;;;;4898079;29;20084;-62
2022/10/31 16:09:54;;;;;;;150.20;76.70;;;;;;;;;;4898219;29;20036;-61
2022/10/31 16:12:21;;;;;;;148.52;74.03;;;;;;;;;;4897905;29;20116;-61
2022/10/31 16:14:48;;;;;;;154.70;78.22;;;;;;;;;;4897789;29;20033;-62
2022/10/31 16:17:15;;;;;;;153.80;77.75;;;;;;;;;;4897993;29;20104;-62
2022/10/31 16:19:53;;;;;;;151.82;76.22;;;;;;;;;;4898026;29;20028;-63
2022/10/31 16:22:21;;;;;;;153.80;76.10;;;;;;;;;;4897892;29;20025;-61
2022/10/31 16:24:50;;;;;;;153.52;76.53;;;;;;;;;;4897894;29;20460;-61
2022/10/31 16:27:18;;;;;;;144.80;75.47;;;;;;;;;;4897467;29;20131;-64
2022/10/31 16:29:45;;;;;;;154.32;76.05;;;;;;;;;;4897501;29;20080;-62
2022/10/31 16:32:25;;;;;;;159.82;78.82;;;;;;;;;;4897337;29;20055;-62
2022/10/31 16:34:58;;;;;;;153.70;78.05;;;;;;;;;;4897605;29;20032;-64
2022/10/31 16:37:24;;;;;;;147.95;76.40;;;;;;;;;;4897181;29;20041;-61
2022/10/31 16:39:50;;;;;;;149.77;76.68;;;;;;;;;;4897535;29;20049;-62
2022/10/31 16:42:16;;;;;;;147.98;76.90;;;;;;;;;;4897510;29;20505;-62
2022/10/31 16:44:44;;;;;;;152.70;75.18;;;;;;;;;;4897680;29;20083;-62
2022/10/31 16:47:17;;;;;;;152.77;77.97;;;;;;;;;;4897358;29;20482;-61
2022/10/31 16:49:44;;;;;;;154.68;78.35;;;;;;;;;;4897393;29;20059;-64
2022/10/31 16:52:10;;;;;;;143.57;73.20;;;;;;;;;;4896996;29;20128;-63
2022/10/31 16:54:36;;;;;;;145.68;73.80;;;;;;;;;;4897470;29;20032;-62
2022/10/31 16:57:03;;;;;;;142.25;75.72;;;;;;;;;;4897328;29;20080;-63
2022/10/31 16:59:30;;;;;;;148.18;74.55;;;;;;;;;;4897243;29;20072;-63
2022/10/31 17:01:56;;;;;;;144.85;74.38;;;;;;;;;;4897009;29;20137;-67
2022/10/31 17:04:22;;;;;;;139.70;72.32;;;;;;;;;;4896304;29;20067;-64
2022/10/31 17:06:48;;;;;;;139.75;72.05;;;;;;;;;;4895252;29;20056;-63
2022/10/31 17:09:14;;;;;;;128.95;66.18;;;;;;;;;;4895869;29;20052;-68
2022/10/31 17:11:44;;;;;;;129.75;67.40;;;;;;;;;;4896832;29;20544;-63
2022/10/31 17:14:10;;;;;;;126.03;63.85;;;;;;;;;;4896924;29;20035;-61
2022/10/31 17:16:37;;;;;;;125.63;63.47;;;;;;;;;;4896916;29;20036;-62
2022/10/31 17:19:03;;;;;;;122.03;60.58;;;;;;;;;;4896480;29;20381;-61
2022/10/31 17:21:30;;;;;;;120.15;61.90;;;;;;;;;;4895558;29;20032;-65
2022/10/31 17:23:56;;;;;;;115.22;60.20;;;;;;;;;;4895655;29;20409;-65
2022/10/31 17:26:22;;;;;;;116.03;59.88;;;;;;;;;;4893738;29;20036;-64
2022/10/31 17:28:48;;;;;;;123.82;64.97;;;;;;;;;;4894321;29;20029;-60
2022/10/31 17:31:21;;;;;;;118.25;63.95;;;;;;;;;;4894350;29;20545;-60
2022/10/31 17:33:47;;;;;;;117.28;62.42;;;;;;;;;;4894671;29;20036;-64
2022/10/31 17:36:13;;;;;;;120.32;62.25;;;;;;;;;;4894980;29;20964;-62
2022/10/31 17:38:39;;;;;;;120.65;63.08;;;;;;;;;;4894757;29;20488;-63
2022/10/31 17:41:05;;;;;;;121.43;63.05;;;;;;;;;;4894788;29;20385;-61
2022/10/31 17:43:31;;;;;;;114.78;60.97;;;;;;;;;;4894108;29;20028;-63
2022/10/31 17:46:01;;;;;;;119.50;60.83;;;;;;;;;;4894655;29;20029;-64
2022/10/31 17:48:27;;;;;;;121.75;61.95;;;;;;;;;;4894447;29;20035;-61
2022/10/31 17:50:53;;;;;;;136.63;67.45;;;;;;;;;;4894375;29;20040;-67
2022/10/31 17:53:19;;;;;;;141.55;72.18;;;;;;;;;;4894684;29;20089;-62
2022/10/31 17:55:45;;;;;;;137.80;69.45;;;;;;;;;;4894502;29;20020;-64
2022/10/31 17:58:12;;;;;;;138.43;70.25;;;;;;;;;;4894534;29;20024;-60
2022/10/31 18:00:42;;;;;;;139.65;72.68;;;;;;;;;;4894839;29;20028;-61
2022/10/31 18:03:08;;;;;;;153.18;80.10;;;;;;;;;;4895197;29;20377;-62
2022/10/31 18:05:34;;;;;;;157.07;83.40;;;;;;;;;;4895885;29;20035;-66
2022/10/31 18:08:00;;;;;;;159.20;84.50;;;;;;;;;;4894607;29;20051;-66
2022/10/31 18:10:26;;;;;;;153.82;82.95;;;;;;;;;;4895937;29;20055;-59
2022/10/31 18:12:52;;;;;;;158.27;83.18;;;;;;;;;;4895562;29;20036;-60
2022/10/31 18:15:19;;;;;;;158.88;82.40;;;;;;;;;;4895840;29;20039;-63
2022/10/31 18:17:45;;;;;;;161.73;83.57;;;;;;;;;;4895730;29;20076;-62
2022/10/31 18:20:11;;;;;;;161.10;86.50;;;;;;;;;;4895778;29;20036;-62
2022/10/31 18:22:37;;;;;;;165.98;88.78;;;;;;;;;;4895817;29;20033;-61
2022/10/31 18:25:04;;;;;;;175.95;85.95;;;;;;;;;;4895480;29;20069;-61
2022/10/31 18:27:30;;;;;;;167.65;86.53;;;;;;;;;;4895495;29;20036;-59
2022/10/31 18:29:56;;;;;;;183.00;90.25;;;;;;;;;;4895337;29;20449;-59
2022/10/31 18:32:22;;;;;;;180.30;90.13;;;;;;;;;;4895260;29;20123;-59
2022/10/31 18:34:48;;;;;;;172.95;88.45;;;;;;;;;;4895731;29;20063;-62
2022/10/31 18:37:14;;;;;;;171.60;85.30;;;;;;;;;;4895294;29;20495;-59
2022/10/31 18:39:40;;;;;;;152.95;82.22;;;;;;;;;;4895154;29;20534;-59
2022/10/31 18:42:06;;;;;;;157.95;79.75;;;;;;;;;;4895048;29;20100;-60
2022/10/31 18:44:33;;;;;;;145.07;76.38;;;;;;;;;;4895701;29;20024;-60
2022/10/31 18:46:59;;;;;;;157.07;80.13;;;;;;;;;;4895413;29;20033;-62
2022/10/31 18:49:28;;;;;;;140.52;72.30;;;;;;;;;;4895637;29;20028;-61
2022/10/31 18:51:54;;;;;;;139.25;70.13;;;;;;;;;;4894708;29;20171;-62
2022/10/31 18:54:20;;;;;;;147.52;74.80;;;;;;;;;;4897332;29;20112;-61
2022/10/31 18:56:46;;;;;;;145.27;73.20;;;;;;;;;;4899624;29;20112;-64
2022/10/31 18:59:12;;;;;;;145.98;73.15;;;;;;;;;;4899144;29;20025;-62
2022/10/31 19:01:38;;;;;;;156.98;79.15;;;;;;;;;;4898678;29;20024;-61
2022/10/31 19:04:04;;;;;;;155.70;78.03;;;;;;;;;;4898199;29;20091;-60
2022/10/31 19:06:30;;;;;;;161.75;79.97;;;;;;;;;;4898051;29;20037;-61
2022/10/31 19:09:01;;;;;;;170.40;85.75;;;;;;;;;;4898525;29;20084;-60
2022/10/31 19:11:27;;;;;;;174.25;88.80;;;;;;;;;;4898644;29;20036;-64
2022/10/31 19:13:53;;;;;;;180.10;89.75;;;;;;;;;;4898465;29;20503;-62
2022/10/31 19:16:19;;;;;;;181.68;91.72;;;;;;;;;;4887834;29;20033;-58
2022/10/31 19:18:46;;;;;;;178.85;87.40;;;;;;;;;;4880223;29;20029;-59
2022/10/31 19:21:13;;;;;;;169.77;84.85;;;;;;;;;;4885127;29;20056;-60
2022/10/31 19:23:39;;;;;;;167.52;82.63;;;;;;;;;;4898286;29;20029;-59
2022/10/31 19:26:06;;;;;;;158.20;80.03;;;;;;;;;;4899012;29;20040;-59
2022/10/31 19:28:33;;;;;;;154.65;78.72;;;;;;;;;;4897263;29;20025;-62
2022/10/31 19:30:59;;;;;;;152.13;75.28;;;;;;;;;;4898108;29;20502;-60
2022/10/31 19:33:28;;;;;;;142.40;70.90;;;;;;;;;;4898757;29;20028;-62
2022/10/31 19:35:58;;;;;;;144.98;68.57;;;;;;;;;;4897813;29;20040;-59
2022/10/31 19:38:24;;;;;;;134.88;69.30;;;;;;;;;;4895778;29;20393;-59
2022/10/31 19:40:55;;;;;;;140.68;68.18;;;;;;;;;;4896517;29;20032;-62
2022/10/31 19:43:21;;;;;;;139.45;68.45;;;;;;;;;;4895980;29;20028;-63
2022/10/31 19:45:57;;;;;;;141.18;70.30;;;;;;;;;;4895542;29;20059;-62
2022/10/31 19:48:23;;;;;;;142.20;70.40;;;;;;;;;;4896398;29;20040;-59
2022/10/31 19:50:50;;;;;;;140.70;69.05;;;;;;;;;;4897862;29;20054;-61
2022/10/31 19:53:16;;;;;;;142.68;70.28;;;;;;;;;;4898083;29;20032;-62
2022/10/31 19:55:42;;;;;;;153.88;74.30;;;;;;;;;;4898365;29;20120;-62
2022/10/31 19:58:08;;;;;;;144.95;72.63;;;;;;;;;;4897329;29;20452;-59
2022/10/31 20:00:34;;;;;;;156.30;74.32;;;;;;;;;;4898037;29;20033;-62